Kensington, New Hampshire
Current Conditions -  °F | °C
As of 6:58 PM on Saturday 25 Oct 2014 (Local Time) from KPSM Reporting Station
Broken Clouds Broken Clouds  
Wind Chill: 56°   Ceiling: 25000
Heat Index: 56°   Visibility: 10mi
Dew Point: 41°   Wind: 7mph
Humidity: 57%   Direction: 180°S
Pressure: 29.54"   Gusts: NA
Location:  42.9832°N, 70.9915°W
Report Text: KPSM 252258Z 18006KT 10SM SCT060 BKN250 14/05 A2954 RMK AO2A SLP007 T01360051
Loading
Personal Weather Stations






























Interactive Weather Map
Tropical Storm Tracking
New forecast layout! Learn more

10-Day Weather Forecast

Advertisements
Track Severe Weather on mobile